地図

経路データ

SID SEASON NUMBER BASIN SUBBASIN NAME ISO_TIME NATURE LAT LON WMO_WIND WMO_PRES WMO_AGENCY TRACK_TYPE DIST2LAND LANDFALL IFLAG USA_AGENCY USA_ATCF_ID USA_LAT USA_LON USA_RECORD USA_STATUS USA_WIND USA_PRES USA_SSHS USA_R34_NE USA_R34_SE USA_R34_SW USA_R34_NW USA_R50_NE USA_R50_SE USA_R50_SW USA_R50_NW USA_R64_NE USA_R64_SE USA_R64_SW USA_R64_NW USA_POCI USA_ROCI USA_RMW USA_EYE TOKYO_LAT TOKYO_LON TOKYO_GRADE TOKYO_WIND TOKYO_PRES TOKYO_R50_DIR TOKYO_R50_LONG TOKYO_R50_SHORT TOKYO_R30_DIR TOKYO_R30_LONG TOKYO_R30_SHORT TOKYO_LAND CMA_LAT CMA_LON CMA_CAT CMA_WIND CMA_PRES HKO_LAT HKO_LON HKO_CAT HKO_WIND HKO_PRES NEWDELHI_LAT NEWDELHI_LON NEWDELHI_GRADE NEWDELHI_WIND NEWDELHI_PRES NEWDELHI_CI NEWDELHI_DP NEWDELHI_POCI REUNION_LAT REUNION_LON REUNION_TYPE REUNION_WIND REUNION_PRES REUNION_TNUM REUNION_CI REUNION_RMW REUNION_R34_NE REUNION_R34_SE REUNION_R34_SW REUNION_R34_NW REUNION_R50_NE REUNION_R50_SE REUNION_R50_SW REUNION_R50_NW REUNION_R64_NE REUNION_R64_SE REUNION_R64_SW REUNION_R64_NW BOM_LAT BOM_LON BOM_TYPE BOM_WIND BOM_PRES BOM_TNUM BOM_CI BOM_RMW BOM_R34_NE BOM_R34_SE BOM_R34_SW BOM_R34_NW BOM_R50_NE BOM_R50_SE BOM_R50_SW BOM_R50_NW BOM_R64_NE BOM_R64_SE BOM_R64_SW BOM_R64_NW BOM_ROCI BOM_POCI BOM_EYE BOM_POS_METHOD BOM_PRES_METHOD NADI_LAT NADI_LON NADI_CAT NADI_WIND NADI_PRES WELLINGTON_LAT WELLINGTON_LON WELLINGTON_WIND WELLINGTON_PRES DS824_LAT DS824_LON DS824_STAGE DS824_WIND DS824_PRES TD9636_LAT TD9636_LON TD9636_STAGE TD9636_WIND TD9636_PRES TD9635_LAT TD9635_LON TD9635_WIND TD9635_PRES TD9635_ROCI NEUMANN_LAT NEUMANN_LON NEUMANN_CLASS NEUMANN_WIND NEUMANN_PRES MLC_LAT MLC_LON MLC_CLASS MLC_WIND MLC_PRES USA_GUST BOM_GUST BOM_GUST_PER REUNION_GUST REUNION_GUST_PER USA_SEAHGT USA_SEARAD_NE USA_SEARAD_SE USA_SEARAD_SW USA_SEARAD_NW STORM_SPEED STORM_DIR
1913060S13057 1913 20 SI MM NOT_NAMED 1913-03-01 06:00:00 NR -13.0000 56.6000 reunion main 702 694 _____O________ -1 -13.0000 56.6000 99 9.90000 3 0
1913060S13057 1913 20 SI MM NOT_NAMED 1913-03-01 09:00:00 NR -13.1588 56.5852 main 694 694 _____P________ -1 -13.1588 56.5852 99 2 177
1913060S13057 1913 20 SI MM NOT_NAMED 1913-03-01 12:00:00 NR -13.2403 56.6030 main 694 687 _____P____O___ -1 -13.3204 56.5706 99 -13.0000 56.7000 4 3 0
1913060S13057 1913 20 SI MM NOT_NAMED 1913-03-01 15:00:00 NR -13.4603 56.5986 main 684 678 _____P____P___ -1 -13.4874 56.5565 99 -13.4063 56.6828 4 5 183
1913060S13057 1913 20 SI MM NOT_NAMED 1913-03-01 18:00:00 NR -13.7258 56.5942 main 678 670 _____P____P___ -1 -13.6626 56.5430 99 -13.8100 56.6624 4 6 0
1913060S13057 1913 20 SI MM NOT_NAMED 1913-03-01 21:00:00 NR -14.0287 56.5831 main 670 656 _____P____P___ -1 -13.8487 56.5303 99 -14.2088 56.6359 4 6 184
1913060S13057 1913 20 SI MM NOT_NAMED 1913-03-02 00:00:00 TS -14.3549 56.5639 main 644 613 _____P___OO___ -1 -14.0485 56.5188 99 -14.6000 56.6000 TC 65 -14.6000 56.6000 4 7 184
1913060S13057 1913 20 SI MM NOT_NAMED 1913-03-02 03:00:00 TS -14.6871 56.5347 main 613 580 _____P___PP___ -1 -14.2647 56.5086 99 -14.9450 56.5500 TC 65 -14.9806 56.5532 4 7 184
1913060S13057 1913 20 SI MM NOT_NAMED 1913-03-02 06:00:00 TS -15.0254 56.5000 reunion main 580 536 _____O___OP___ -1 -14.5000 56.5000 99 9.90000 -15.3000 56.5000 TC 65 -15.3450 56.5001 4 7 185
1913060S13057 1913 20 SI MM NOT_NAMED 1913-03-02 09:00:00 TS -15.3694 56.4632 main 536 505 _____P___PP___ -1 -14.7562 56.4927 99 -15.6650 56.4500 TC 65 -15.6869 56.4469 4 7 186
1913060S13057 1913 20 SI MM NOT_NAMED 1913-03-02 12:00:00 TS -15.6771 56.4283 main 505 484 _____P___OO___ -1 -15.0312 56.4850 99 -16.0000 56.4000 TC 65 -16.0000 56.4000 4 6 186
1913060S13057 1913 20 SI MM NOT_NAMED 1913-03-02 15:00:00 TS -15.9525 56.3976 main 473 451 _____P___PP___ -1 -15.3218 56.4745 99 -16.2650 56.3425 TC 65 -16.2706 56.3758 4 5 186
1913060S13057 1913 20 SI MM NOT_NAMED 1913-03-02 18:00:00 TS -16.2133 56.3721 main 451 419 _____P___OP___ -1 -15.6250 56.4590 99 -16.5000 56.3000 TC 65 -16.5150 56.3572 4 5 184
1913060S13057 1913 20 SI MM NOT_NAMED 1913-03-02 21:00:00 TS -16.4773 56.3570 main 419 400 _____P___PP___ -1 -15.9375 56.4361 99 -16.7425 56.2999 TC 65 -16.7518 56.3351 4 5 183
1913060S13057 1913 20 SI MM NOT_NAMED 1913-03-03 00:00:00 TS -16.7521 56.3345 main 390 369 _____P___OO___ -1 -16.2562 56.4035 99 -17.0000 56.3000 TC 65 -17.0000 56.3000 4 6 185
1913060S13057 1913 20 SI MM NOT_NAMED 1913-03-03 03:00:00 TS -17.0534 56.2918 main 358 337 _____P___PP___ -1 -16.5781 56.3589 99 -17.2925 56.2650 TC 65 -17.2897 56.2515 4 6 189
1913060S13057 1913 20 SI MM NOT_NAMED 1913-03-03 06:00:00 TS -17.3641 56.2291 reunion main 331 301 _____O___OP___ -1 -16.9000 56.3000 99 9.90000 -17.6000 56.2000 TC 65 -17.5924 56.1874 4 6 193
1913060S13057 1913 20 SI MM NOT_NAMED 1913-03-03 09:00:00 TS -17.6759 56.1485 main 306 277 _____P___PP___ -1 -17.2288 56.2336 99 -17.9000 56.1075 TC 65 -17.8990 56.1045 4 7 195
1913060S13057 1913 20 SI MM NOT_NAMED 1913-03-03 12:00:00 TS -17.9874 56.0513 main 277 255 _____P___OO___ -1 -17.5622 56.1540 99 -18.2000 56.0000 TC 65 -18.2000 56.0000 4 7 196
1913060S13057 1913 20 SI MM NOT_NAMED 1913-03-03 15:00:00 TS -18.3005 55.9533 main 255 237 _____P___PP___ -1 -17.8957 56.0613 99 -18.5075 55.9149 TC 65 -18.4984 55.8838 4 7 198
1913060S13057 1913 20 SI MM NOT_NAMED 1913-03-03 18:00:00 TS -18.6040 55.8334 main 244 230 _____P___OP___ -1 -18.2246 55.9553 99 -18.8000 55.8000 TC 65 -18.7874 55.7450 4 6 204
1913060S13057 1913 20 SI MM NOT_NAMED 1913-03-03 21:00:00 TS -18.8890 55.6783 main 231 212 _____P___PP___ -1 -18.5441 55.8362 99 -19.0650 55.6150 TC 65 -19.0577 55.5837 4 6 210
1913060S13057 1913 20 SI MM NOT_NAMED 1913-03-04 00:00:00 TS -19.1499 55.5013 main 212 178 _____P___OO___ -1 -18.8497 55.7039 99 -19.3000 55.4000 TC 65 -19.3000 55.4000 4 6 214
1913060S13057 1913 20 SI MM NOT_NAMED 1913-03-04 03:00:00 TS -19.3851 55.3181 main 178 156 _____P___PP___ -1 -19.1365 55.5585 99 -19.5149 55.2074 TC 65 -19.5038 55.1883 4 6 219
1913060S13057 1913 20 SI MM NOT_NAMED 1913-03-04 06:00:00 TS -19.5934 55.1191 reunion main 157 140 _____O___OP___ -1 -19.4000 55.4000 99 9.90000 -19.7000 55.0000 TC 65 -19.6801 54.9574 4 6 226
1913060S13057 1913 20 SI MM NOT_NAMED 1913-03-04 09:00:00 TS -19.7770 54.8923 main 140 133 _____P___PP___ -1 -19.6323 55.2041 99 -19.8575 54.7500 TC 65 -19.8413 54.7227 4 6 231
1913060S13057 1913 20 SI MM NOT_NAMED 1913-03-04 12:00:00 TS -19.9473 54.6633 main 137 128 _____P___OO___ -1 -19.8420 54.9899 99 -20.0000 54.5000 TC 65 -20.0000 54.5000 4 5 231
1913060S13057 1913 20 SI MM NOT_NAMED 1913-03-04 15:00:00 TS -20.1179 54.4457 main 137 129 _____P___PP___ -1 -20.0323 54.7660 99 -20.1425 54.2849 TC 65 -20.1791 54.2863 4 5 229
1913060S13057 1913 20 SI MM NOT_NAMED 1913-03-04 18:00:00 TS -20.2879 54.2437 main 137 130 _____P___OP___ -1 -20.2062 54.5409 99 -20.3000 54.1000 TC 65 -20.3575 54.0901 4 5 226
1913060S13057 1913 20 SI MM NOT_NAMED 1913-03-04 21:00:00 TS -20.4663 54.0582 main 132 132 _____P___PP___ -1 -20.3667 54.3231 99 -20.5000 53.9275 TC 65 -20.5322 53.9238 4 5 222
1913060S13057 1913 20 SI MM NOT_NAMED 1913-03-05 00:00:00 TS -20.6390 53.9071 main 146 142 _____P___OO___ -1 -20.5170 54.1213 99 -20.7000 53.8000 TC 65 -20.7000 53.8000 4 4 217
1913060S13057 1913 20 SI MM NOT_NAMED 1913-03-05 03:00:00 TS -20.7917 53.7997 main 149 147 _____P___PP___ -1 -20.6604 53.9440 99 -20.8575 53.7275 TC 65 -20.8571 53.7276 4 3 209
1913060S13057 1913 20 SI MM NOT_NAMED 1913-03-05 06:00:00 TS -20.9358 53.7324 reunion main 157 155 _____O___OP___ -1 -20.8000 53.8000 99 9.90000 -21.0000 53.7000 TC 65 -21.0074 53.6972 4 3 199
1913060S13057 1913 20 SI MM NOT_NAMED 1913-03-05 09:00:00 TS -21.0837 53.6984 main 155 155 _____P___PP___ -1 -20.9472 53.7095 99 -21.1500 53.6925 TC 65 -21.1540 53.6933 4 3 188
1913060S13057 1913 20 SI MM NOT_NAMED 1913-03-05 12:00:00 TS -21.2293 53.6833 main 155 155 _____P___OO___ -1 -21.0878 53.6500 99 -21.3000 53.7000 TC 65 -21.3000 53.7000 4 3 0
1913060S13057 1913 20 SI MM NOT_NAMED 1913-03-05 15:00:00 TS -21.3746 53.6686 main 158 158 _____P___PP___ -1 -21.2237 53.6170 99 -21.4500 53.7000 TC 65 -21.4500 53.6887 4 3 185
1913060S13057 1913 20 SI MM NOT_NAMED 1913-03-05 18:00:00 TS -21.5189 53.6638 main 161 161 _____P___OP___ -1 -21.3568 53.6064 99 -21.6000 53.7000 TC 65 -21.6000 53.6850 4 3 0
1913060S13057 1913 20 SI MM NOT_NAMED 1913-03-05 21:00:00 TS -21.6630 53.6675 main 169 169 _____P___PP___ -1 -21.4891 53.6138 99 -21.7500 53.7000 TC 65 -21.7500 53.6888 4 3 0
1913060S13057 1913 20 SI MM NOT_NAMED 1913-03-06 00:00:00 TS -21.8075 53.6782 main 173 173 _____P___OO___ -1 -21.6224 53.6347 99 -21.9000 53.7000 TC 65 -21.9000 53.7000 4 3 176
1913060S13057 1913 20 SI MM NOT_NAMED 1913-03-06 03:00:00 TS -21.9529 53.6904 main 182 182 _____P___PP___ -1 -21.7588 53.6649 99 -22.0500 53.6925 TC 65 -22.0500 53.7138 4 3 171
1913060S13057 1913 20 SI MM NOT_NAMED 1913-03-06 06:00:00 TS -22.1000 53.7117 reunion main 187 187 _____O___OP___ -1 -21.9000 53.7000 99 9.90000 -22.2000 53.7000 TC 65 -22.2000 53.7350 4 3 173
1913060S13057 1913 20 SI MM NOT_NAMED 1913-03-06 09:00:00 TS -22.2491 53.7386 main 193 190 _____P___PP___ -1 -22.0474 53.7094 99 -22.3500 53.7425 TC 65 -22.3500 53.7638 4 3 170
1913060S13057 1913 20 SI MM NOT_NAMED 1913-03-06 12:00:00 TS -22.3995 53.7754 main 197 197 _____P___OO___ -1 -22.1984 53.7262 99 -22.5000 53.8000 TC 65 -22.5000 53.8000 4 3 167
1913060S13057 1913 20 SI MM NOT_NAMED 1913-03-06 15:00:00 TS -22.5456 53.8118 main 204 204 _____P___PP___ -1 -22.3532 53.7506 99 -22.6500 53.8500 TC 65 -22.6337 53.8348 4 3 168
1913060S13057 1913 20 SI MM NOT_NAMED 1913-03-06 18:00:00 TS -22.6941 53.8536 main 212 212 _____P___OP___ -1 -22.5124 53.7830 99 -22.8000 53.9000 TC 65 -22.7700 53.8777 4 3 165
1913060S13057 1913 20 SI MM NOT_NAMED 1913-03-06 21:00:00 TS -22.8442 53.8994 main 221 221 _____P___PP___ -1 -22.6762 53.8237 99 -22.9350 53.9426 TC 65 -22.9212 53.9317 4 3 163
1913060S13057 1913 20 SI MM NOT_NAMED 1913-03-07 00:00:00 TS -23.0151 53.9578 main 232 232 _____P___OO___ -1 -22.8452 53.8733 99 -23.1000 54.0000 TC 65 -23.1000 54.0000 4 4 162
1913060S13057 1913 20 SI MM NOT_NAMED 1913-03-07 03:00:00 TS -23.2280 54.0353 main 251 251 _____P___PP___ -1 -23.0197 53.9319 99 -23.3350 54.0925 TC 65 -23.3294 54.0815 4 5 161
1913060S13057 1913 20 SI MM NOT_NAMED 1913-03-07 06:00:00 TS -23.4617 54.1258 reunion main 275 270 _____O___OP___ -1 -23.2000 54.0000 99 9.90000 -23.6000 54.2000 TC 65 -23.5850 54.1774 4 5 160
1913060S13057 1913 20 SI MM NOT_NAMED 1913-03-07 09:00:00 TS -23.7011 54.2210 main 291 291 _____P___PP___ -1 -23.3976 54.0784 99 -23.8575 54.3000 TC 65 -23.8481 54.2846 4 5 159
1913060S13057 1913 20 SI MM NOT_NAMED 1913-03-07 12:00:00 TS -23.9343 54.3225 main 308 308 _____P___OO___ -1 -23.6029 54.1675 99 -24.1000 54.4000 TC 65 -24.1000 54.4000 4 5 157
1913060S13057 1913 20 SI MM NOT_NAMED 1913-03-07 15:00:00 TS -24.1487 54.4261 main 325 325 _____P___PP___ -1 -23.8125 54.2652 99 -24.3075 54.4926 TC 65 -24.3263 54.5206 4 4 155
1913060S13057 1913 20 SI MM NOT_NAMED 1913-03-07 18:00:00 TS -24.3181 54.5211 main 343 343 _____P___OP___ -1 -24.0227 54.3692 99 -24.5000 54.6000 TC 65 -24.5301 54.6448 4 4 151
1913060S13057 1913 20 SI MM NOT_NAMED 1913-03-07 21:00:00 TS -24.4691 54.6164 main 361 358 _____P___PP___ -1 -24.2300 54.4770 99 -24.6975 54.7399 TC 65 -24.7188 54.7717 4 3 151
1913060S13057 1913 20 SI MM NOT_NAMED 1913-03-08 00:00:00 TS -24.5874 54.6909 main 369 369 _____P___OO___ -1 -24.4311 54.5863 99 -24.9000 54.9000 TC 65 -24.9000 54.9000 4 2 156
1913060S13057 1913 20 SI MM NOT_NAMED 1913-03-08 03:00:00 NR -24.6222 54.6948 main 369 369 _____P________ -1 -24.6222 54.6948 99 TC 4 2 155
1913060S13057 1913 20 SI MM NOT_NAMED 1913-03-08 06:00:00 NR -24.8000 54.8000 reunion main 388 388 _____O________ -1 -24.8000 54.8000 99 9.90000 4 4 151
1913060S13057 1913 20 SI MM NOT_NAMED 1913-03-08 09:00:00 NR -24.9619 54.9000 main 408 407 _____P________ -1 -24.9619 54.9000 99 4 4 150
1913060S13057 1913 20 SI MM NOT_NAMED 1913-03-08 12:00:00 NR -25.1090 54.9950 main 418 418 _____P________ -1 -25.1090 54.9950 99 3 149
1913060S13057 1913 20 SI MM NOT_NAMED 1913-03-08 15:00:00 NR -25.2435 55.0857 main 427 427 _____P________ -1 -25.2435 55.0857 99 3 147
1913060S13057 1913 20 SI MM NOT_NAMED 1913-03-08 18:00:00 NR -25.3674 55.1728 main 448 448 _____P________ -1 -25.3674 55.1728 99 3 147
1913060S13057 1913 20 SI MM NOT_NAMED 1913-03-08 21:00:00 NR -25.4830 55.2570 main 459 459 _____P________ -1 -25.4830 55.2570 99 3 147
1913060S13057 1913 20 SI MM NOT_NAMED 1913-03-09 00:00:00 NR -25.5922 55.3392 main 470 469 _____P________ -1 -25.5922 55.3392 99 3 146
1913060S13057 1913 20 SI MM NOT_NAMED 1913-03-09 03:00:00 NR -25.6972 55.4199 main 481 480 _____P________ -1 -25.6972 55.4199 99 3 145
1913060S13057 1913 20 SI MM NOT_NAMED 1913-03-09 06:00:00 NR -25.8000 55.5000 reunion main 491 _____O________ -1 -25.8000 55.5000 99 9.90000 3 145

IBTrACS Databaseについて

本データベースは、米国NOAAが公開する1842年以降の世界の熱帯低気圧のベストトラックデータアーカイブInternational Best Track Archive for Climate Stewardship (IBTrACS)を、ウェブで閲覧しやすい形式に変換したものです。

最終更新日:2021-12-03